createdAt,value
2018-05-31T00:00:36.870Z,20.30
2018-05-31T00:01:42.656Z,19.67
2018-05-31T00:02:49.205Z,20.95
2018-05-31T00:03:55.778Z,20.98
2018-05-31T00:05:02.340Z,20.62
2018-05-31T00:06:09.096Z,20.00
2018-05-31T00:07:15.851Z,21.58
2018-05-31T00:08:21.623Z,20.83
2018-05-31T00:09:27.501Z,22.23
2018-05-31T00:10:33.524Z,21.40
2018-05-31T00:11:40.258Z,20.70
2018-05-31T00:12:46.219Z,20.55
2018-05-31T00:13:52.754Z,20.30
2018-05-31T00:14:58.523Z,21.08
2018-05-31T00:16:05.084Z,20.92
2018-05-31T00:17:11.623Z,20.52
2018-05-31T00:18:18.159Z,20.30
2018-05-31T00:19:23.936Z,20.52
2018-05-31T00:20:30.142Z,20.88
2018-05-31T00:21:35.946Z,22.05
2018-05-31T00:22:41.736Z,20.75
2018-05-31T00:23:47.520Z,22.17
2018-05-31T00:24:54.070Z,21.75
2018-05-31T00:26:00.046Z,20.08
2018-05-31T00:27:05.841Z,21.65
2018-05-31T00:28:11.818Z,21.60
2018-05-31T00:29:17.626Z,21.60
2018-05-31T00:30:24.168Z,21.50
2018-05-31T00:31:29.955Z,22.42
2018-05-31T00:32:35.762Z,20.25
2018-05-31T00:33:41.538Z,22.55
2018-05-31T00:34:48.085Z,21.65
2018-05-31T00:35:54.339Z,21.37
2018-05-31T00:37:00.106Z,21.98
2018-05-31T00:38:06.111Z,22.27
2018-05-31T00:39:12.091Z,22.85
2018-05-31T00:40:18.843Z,22.30
2018-05-31T00:41:24.839Z,22.15
2018-05-31T00:42:30.817Z,21.50
2018-05-31T00:43:38.127Z,21.37
2018-05-31T00:44:44.893Z,22.62
2018-05-31T00:45:51.436Z,22.13
2018-05-31T00:46:57.213Z,23.15
2018-05-31T00:48:03.193Z,23.30
2018-05-31T00:49:08.987Z,22.37
2018-05-31T00:50:15.985Z,23.15
2018-05-31T00:51:21.764Z,23.62
2018-05-31T00:52:27.744Z,23.20
2018-05-31T00:53:34.294Z,23.52
2018-05-31T00:54:41.899Z,23.27
2018-05-31T00:56:04.802Z,23.38
2018-05-31T00:57:10.780Z,22.77
2018-05-31T00:58:17.523Z,22.95
2018-05-31T00:59:23.499Z,24.10
2018-05-31T01:00:29.494Z,23.73
2018-05-31T01:01:35.474Z,25.65
2018-05-31T01:02:42.215Z,24.08
2018-05-31T01:03:48.006Z,24.55
2018-05-31T01:04:54.008Z,25.90
2018-05-31T01:05:59.807Z,25.15
2018-05-31T01:07:05.135Z,24.42
2018-05-31T01:08:10.917Z,24.40
2018-05-31T01:09:16.691Z,24.77
2018-05-31T01:10:23.436Z,25.05
2018-05-31T01:11:29.533Z,25.35
2018-05-31T01:12:35.308Z,25.52
2018-05-31T01:13:41.125Z,24.95
2018-05-31T01:14:47.104Z,25.73
2018-05-31T01:15:53.679Z,24.92
2018-05-31T01:16:59.699Z,25.40
2018-05-31T01:18:05.517Z,25.60
2018-05-31T01:19:11.287Z,25.85
2018-05-31T01:20:17.067Z,25.83
2018-05-31T01:21:23.730Z,24.08
2018-05-31T01:22:29.519Z,25.92
2018-05-31T01:23:35.295Z,26.02
2018-05-31T01:24:41.067Z,25.85
2018-05-31T01:25:47.616Z,24.83
2018-05-31T01:26:54.155Z,26.20
2018-05-31T01:28:00.163Z,24.85
2018-05-31T01:29:05.943Z,25.83
2018-05-31T01:30:11.943Z,26.73
2018-05-31T01:31:17.926Z,25.42
2018-05-31T01:32:23.911Z,25.80
2018-05-31T01:33:30.487Z,26.98
2018-05-31T01:34:36.472Z,24.75
2018-05-31T01:35:42.455Z,25.08
2018-05-31T01:36:48.239Z,26.00
2018-05-31T01:37:53.319Z,27.10
2018-05-31T01:38:59.323Z,27.98
2018-05-31T01:40:04.767Z,26.75
2018-05-31T01:41:10.559Z,27.60
2018-05-31T01:42:16.358Z,26.75
2018-05-31T01:43:22.426Z,27.50
2018-05-31T01:44:28.219Z,29.12
2018-05-31T01:45:33.990Z,27.60
2018-05-31T01:46:39.983Z,27.13
2018-05-31T01:47:45.947Z,27.52
2018-05-31T01:48:51.711Z,27.30
2018-05-31T01:49:57.495Z,27.90
2018-05-31T01:51:03.477Z,26.83
2018-05-31T01:52:09.492Z,27.50
2018-05-31T01:53:16.243Z,27.77
2018-05-31T01:54:22.235Z,27.13
2018-05-31T01:55:28.241Z,27.30
2018-05-31T01:56:34.026Z,27.85
2018-05-31T01:57:39.807Z,27.27
2018-05-31T01:58:45.575Z,28.52
2018-05-31T01:59:51.354Z,28.12
2018-05-31T02:00:57.147Z,28.20
2018-05-31T02:02:02.926Z,29.17
2018-05-31T02:03:09.497Z,28.50
2018-05-31T02:04:16.035Z,28.38
2018-05-31T02:05:22.541Z,30.52
2018-05-31T02:06:28.545Z,28.35
2018-05-31T02:07:35.294Z,29.58
2018-05-31T02:08:41.085Z,29.65
2018-05-31T02:09:46.868Z,30.48
2018-05-31T02:10:52.847Z,29.50
2018-05-31T02:11:59.611Z,28.60
2018-05-31T02:13:05.802Z,28.35
2018-05-31T02:14:11.783Z,28.70
2018-05-31T02:15:18.289Z,29.52
2018-05-31T02:16:24.061Z,30.10
2018-05-31T02:17:29.865Z,29.87
2018-05-31T02:18:35.990Z,29.33
2018-05-31T02:19:42.735Z,30.40
2018-05-31T02:20:49.495Z,29.70
2018-05-31T02:21:55.484Z,30.73
2018-05-31T02:23:01.651Z,29.50
2018-05-31T02:24:07.304Z,29.12
2018-05-31T02:25:13.393Z,30.30
2018-05-31T02:26:19.380Z,30.92
2018-05-31T02:27:25.160Z,30.30
2018-05-31T02:28:30.963Z,30.35
2018-05-31T02:29:36.947Z,28.87
2018-05-31T02:30:42.719Z,29.65
2018-05-31T02:31:48.706Z,30.80
2018-05-31T02:32:54.473Z,31.50
2018-05-31T02:34:00.292Z,30.05
2018-05-31T02:35:05.934Z,31.65
2018-05-31T02:36:11.713Z,32.33
2018-05-31T02:37:17.700Z,30.77
2018-05-31T02:38:24.232Z,32.72
2018-05-31T02:39:30.790Z,30.95
2018-05-31T02:40:36.566Z,31.27
2018-05-31T02:41:43.109Z,32.10
2018-05-31T02:42:49.859Z,30.37
2018-05-31T02:43:55.860Z,32.22
2018-05-31T02:45:01.652Z,32.83
2018-05-31T02:46:07.624Z,32.15
2018-05-31T02:47:13.617Z,31.70
2018-05-31T02:48:19.254Z,32.05
2018-05-31T02:49:25.332Z,33.90
2018-05-31T02:50:31.331Z,31.87
2018-05-31T02:51:37.323Z,33.20
2018-05-31T02:52:43.119Z,31.23
2018-05-31T02:53:48.906Z,33.63
2018-05-31T02:54:54.684Z,32.25
2018-05-31T02:56:00.748Z,33.20
2018-05-31T02:57:06.537Z,32.78
2018-05-31T02:58:13.079Z,32.78
2018-05-31T02:59:19.056Z,33.92
2018-05-31T03:00:24.835Z,31.85
2018-05-31T03:01:30.610Z,33.78
2018-05-31T03:02:36.608Z,33.08
2018-05-31T03:03:43.156Z,33.63
2018-05-31T03:04:49.706Z,33.05
2018-05-31T03:05:55.679Z,34.22
2018-05-31T03:07:02.319Z,32.60
2018-05-31T03:08:09.060Z,32.17
2018-05-31T03:09:15.075Z,33.10
2018-05-31T03:10:20.850Z,34.47
2018-05-31T03:11:26.626Z,31.83
2018-05-31T03:12:33.427Z,33.10
2018-05-31T03:13:39.190Z,31.75
2018-05-31T03:14:45.165Z,33.45
2018-05-31T03:15:51.150Z,33.25
2018-05-31T03:16:57.118Z,34.78
2018-05-31T03:18:03.119Z,32.55
2018-05-31T03:19:09.695Z,35.00
2018-05-31T03:20:16.539Z,33.85
2018-05-31T03:21:22.360Z,34.42
2018-05-31T03:22:28.131Z,32.33
2018-05-31T03:23:34.700Z,31.05
2018-05-31T03:24:41.100Z,33.95
2018-05-31T03:25:46.938Z,32.35
2018-05-31T03:26:52.777Z,30.95
2018-05-31T03:27:58.722Z,32.28
2018-05-31T03:29:04.579Z,29.63
2018-05-31T03:30:10.404Z,30.55
2018-05-31T03:31:16.183Z,29.12
2018-05-31T03:32:21.955Z,30.30
2018-05-31T03:33:28.492Z,29.50
2018-05-31T03:34:34.300Z,30.67
2018-05-31T03:35:40.075Z,28.87
2018-05-31T03:36:45.860Z,30.85
2018-05-31T03:37:52.939Z,28.92
2018-05-31T03:38:58.914Z,29.40
2018-05-31T03:40:04.018Z,30.48
2018-05-31T03:41:09.998Z,29.63
2018-05-31T03:42:16.003Z,29.75
2018-05-31T03:43:21.786Z,30.20
2018-05-31T03:44:27.759Z,28.73
2018-05-31T03:45:33.551Z,29.33
2018-05-31T03:46:39.328Z,29.92
2018-05-31T03:47:45.108Z,29.92
2018-05-31T03:48:51.097Z,30.10
2018-05-31T03:49:56.872Z,29.90
2018-05-31T03:51:03.439Z,30.25
2018-05-31T03:52:09.211Z,30.80
2018-05-31T03:53:15.000Z,33.35
2018-05-31T03:54:20.959Z,30.62
2018-05-31T03:55:26.744Z,32.33
2018-05-31T03:56:32.536Z,32.20
2018-05-31T03:57:38.533Z,32.70
2018-05-31T03:58:44.515Z,34.75
2018-05-31T03:59:50.282Z,34.20
2018-05-31T04:00:56.059Z,35.08
2018-05-31T04:02:01.852Z,35.00
2018-05-31T04:03:07.830Z,33.92
2018-05-31T04:04:14.367Z,34.25
2018-05-31T04:05:20.150Z,35.88
2018-05-31T04:06:26.141Z,35.15
2018-05-31T04:07:31.949Z,36.28
2018-05-31T04:08:37.935Z,36.85
2018-05-31T04:09:43.739Z,34.00
2018-05-31T04:10:49.526Z,35.25
2018-05-31T04:11:55.838Z,35.58
2018-05-31T04:13:02.059Z,32.50
2018-05-31T04:14:08.998Z,35.13
2018-05-31T04:15:15.022Z,35.10
2018-05-31T04:16:22.192Z,38.08
2018-05-31T04:17:28.430Z,36.97
2018-05-31T04:18:34.485Z,35.67
2018-05-31T04:19:41.144Z,36.53
2018-05-31T04:20:46.980Z,33.60
2018-05-31T04:21:52.800Z,35.13
2018-05-31T04:22:59.381Z,36.15
2018-05-31T04:24:06.803Z,34.90
2018-05-31T04:25:12.624Z,34.15
2018-05-31T04:26:18.717Z,37.15
2018-05-31T04:27:24.563Z,34.47
2018-05-31T04:28:30.389Z,36.38
2018-05-31T04:29:36.460Z,34.33
2018-05-31T04:30:43.321Z,33.05
2018-05-31T04:31:50.140Z,35.38
2018-05-31T04:32:56.171Z,34.42
2018-05-31T04:34:02.233Z,32.90
2018-05-31T04:35:08.396Z,38.63
2018-05-31T04:36:14.241Z,36.88
2018-05-31T04:37:20.042Z,36.03
2018-05-31T04:38:26.816Z,36.70
2018-05-31T04:39:32.593Z,37.22
2018-05-31T04:40:38.595Z,36.50
2018-05-31T04:41:45.131Z,38.90
2018-05-31T04:42:52.420Z,40.05
2018-05-31T04:43:59.015Z,40.60
2018-05-31T04:45:04.681Z,41.35
2018-05-31T04:46:10.574Z,43.28
2018-05-31T04:47:17.328Z,40.50
2018-05-31T04:48:23.883Z,38.72
2018-05-31T04:49:29.876Z,40.12
2018-05-31T04:50:35.652Z,40.95
2018-05-31T04:51:41.470Z,41.22
2018-05-31T04:52:47.456Z,40.20
2018-05-31T04:53:57.863Z,39.80
2018-05-31T04:55:04.112Z,41.13
2018-05-31T04:56:09.967Z,40.70
2018-05-31T04:57:15.950Z,39.83
2018-05-31T04:58:21.905Z,46.42
2018-05-31T04:59:28.552Z,41.35
2018-05-31T05:00:35.116Z,40.60
2018-05-31T05:01:40.896Z,41.80
2018-05-31T05:02:46.709Z,41.70
2018-05-31T05:03:53.250Z,43.58
2018-05-31T05:04:59.036Z,42.30
2018-05-31T05:06:04.818Z,43.17
2018-05-31T05:07:10.596Z,41.30
2018-05-31T05:08:17.168Z,43.03
2018-05-31T05:09:23.731Z,43.38
2018-05-31T05:10:30.276Z,43.08
2018-05-31T05:11:36.064Z,42.47
2018-05-31T05:12:41.905Z,43.97
2018-05-31T05:13:47.711Z,40.50
2018-05-31T05:14:54.264Z,40.88
2018-05-31T05:16:00.275Z,39.38
2018-05-31T05:17:06.058Z,41.15
2018-05-31T05:18:12.608Z,44.25
2018-05-31T05:19:19.491Z,43.80
2018-05-31T05:20:26.031Z,42.40
2018-05-31T05:21:31.823Z,39.65
2018-05-31T05:22:37.638Z,43.95
2018-05-31T05:23:44.384Z,42.72
2018-05-31T05:24:50.239Z,41.63
2018-05-31T05:25:56.797Z,43.05
2018-05-31T05:27:02.787Z,44.10
2018-05-31T05:28:08.575Z,42.50
2018-05-31T05:29:14.570Z,42.67
2018-05-31T05:30:20.588Z,43.08
2018-05-31T05:31:27.391Z,40.78
2018-05-31T05:32:33.412Z,41.17
2018-05-31T05:33:40.138Z,40.10
2018-05-31T05:34:46.002Z,40.20
2018-05-31T05:35:52.025Z,43.55
2018-05-31T05:36:57.835Z,50.85
2018-05-31T05:38:03.822Z,42.75
2018-05-31T05:39:09.788Z,43.50
2018-05-31T05:40:15.571Z,42.47
2018-05-31T05:41:21.572Z,42.00
2018-05-31T05:42:27.546Z,42.95
2018-05-31T05:43:34.091Z,43.92
2018-05-31T05:44:40.071Z,43.70
2018-05-31T05:45:45.916Z,43.85
2018-05-31T05:46:51.733Z,43.38
2018-05-31T05:47:58.495Z,44.75
2018-05-31T05:49:05.038Z,42.85
2018-05-31T05:50:11.671Z,45.28
2018-05-31T05:51:18.368Z,44.55
2018-05-31T05:52:25.151Z,43.58
2018-05-31T05:53:31.700Z,43.97
2018-05-31T05:54:38.444Z,45.28
2018-05-31T05:55:46.092Z,44.17
2018-05-31T05:56:52.110Z,44.70
2018-05-31T05:57:57.925Z,44.20
2018-05-31T05:59:03.703Z,43.33
2018-05-31T06:00:09.481Z,40.90
2018-05-31T06:01:15.457Z,41.80
2018-05-31T06:02:21.444Z,41.35
2018-05-31T06:03:27.243Z,42.38
2018-05-31T06:04:33.231Z,39.67
2018-05-31T06:05:39.010Z,42.00
2018-05-31T06:06:45.036Z,42.88
2018-05-31T06:07:50.809Z,41.92
2018-05-31T06:08:56.615Z,40.65
2018-05-31T06:10:02.398Z,39.08
2018-05-31T06:11:08.611Z,41.35
2018-05-31T06:12:14.595Z,40.83
2018-05-31T06:13:20.407Z,40.12
2018-05-31T06:14:26.418Z,41.45
2018-05-31T06:15:33.219Z,38.45
2018-05-31T06:16:39.142Z,41.08
2018-05-31T06:17:45.116Z,40.63
2018-05-31T06:18:51.098Z,41.90
2018-05-31T06:19:57.103Z,40.40
2018-05-31T06:21:03.103Z,41.30
2018-05-31T06:22:09.115Z,40.85
2018-05-31T06:23:15.145Z,38.55
2018-05-31T06:24:20.935Z,39.42
2018-05-31T06:25:26.940Z,39.10
2018-05-31T06:26:32.746Z,39.83
2018-05-31T06:27:38.696Z,39.75
2018-05-31T06:28:45.287Z,39.92
2018-05-31T06:29:51.082Z,38.65
2018-05-31T06:30:56.888Z,39.15
2018-05-31T06:32:02.862Z,35.90
2018-05-31T06:33:08.864Z,37.95
2018-05-31T06:34:14.852Z,38.13
2018-05-31T06:35:20.620Z,37.72
2018-05-31T06:36:27.033Z,38.00
2018-05-31T06:37:32.587Z,37.47
2018-05-31T06:38:38.363Z,35.08
2018-05-31T06:39:44.895Z,38.38
2018-05-31T06:40:50.669Z,37.95
2018-05-31T06:41:56.455Z,37.70
2018-05-31T06:43:02.219Z,37.38
2018-05-31T06:44:07.994Z,36.72
2018-05-31T06:45:14.522Z,38.08
2018-05-31T06:46:21.799Z,39.20
2018-05-31T06:47:27.590Z,38.75
2018-05-31T06:48:33.362Z,39.33
2018-05-31T06:49:39.132Z,35.28
2018-05-31T06:50:45.126Z,38.08
2018-05-31T06:51:50.883Z,36.20
2018-05-31T06:52:56.709Z,37.28
2018-05-31T06:54:02.498Z,37.35
2018-05-31T06:55:08.599Z,36.65
2018-05-31T06:56:14.384Z,35.45
2018-05-31T06:57:20.150Z,37.22
2018-05-31T06:58:25.954Z,36.67
2018-05-31T06:59:31.726Z,38.67
2018-05-31T07:00:37.504Z,37.50
2018-05-31T07:01:43.563Z,35.30
2018-05-31T07:02:49.543Z,38.45
2018-05-31T07:03:55.326Z,36.20
2018-05-31T07:05:01.876Z,35.55
2018-05-31T07:06:07.643Z,38.45
2018-05-31T07:07:13.429Z,36.92
2018-05-31T07:08:19.201Z,37.58
2018-05-31T07:09:24.995Z,34.65
2018-05-31T07:10:30.761Z,34.75
2018-05-31T07:11:36.528Z,36.63
2018-05-31T07:12:43.838Z,36.13
2018-05-31T07:13:49.608Z,36.00
2018-05-31T07:14:55.395Z,37.78
2018-05-31T07:16:01.934Z,37.65
2018-05-31T07:17:07.703Z,37.33
2018-05-31T07:18:14.245Z,36.15
2018-05-31T07:19:19.752Z,36.27
2018-05-31T07:20:26.278Z,36.90
2018-05-31T07:21:31.779Z,36.43
2018-05-31T07:22:37.557Z,34.47
2018-05-31T07:23:43.066Z,35.87
2018-05-31T07:24:48.565Z,36.30
2018-05-31T07:25:54.869Z,34.07
2018-05-31T07:27:00.406Z,34.47
2018-05-31T07:28:05.686Z,35.93
2018-05-31T07:29:11.946Z,36.87
2018-05-31T07:30:18.209Z,35.93
2018-05-31T07:31:23.763Z,36.63
2018-05-31T07:32:29.264Z,36.60
2018-05-31T07:33:35.526Z,37.77
2018-05-31T07:34:41.792Z,35.17
2018-05-31T07:35:47.291Z,37.27
2018-05-31T07:36:52.814Z,36.70
2018-05-31T07:37:58.341Z,36.43
2018-05-31T07:39:03.378Z,37.63
2018-05-31T07:40:08.894Z,37.13
2018-05-31T07:41:14.404Z,37.47
2018-05-31T07:42:19.936Z,37.40
2018-05-31T07:43:24.875Z,39.20
2018-05-31T07:44:30.371Z,36.93
2018-05-31T07:45:36.641Z,37.23
2018-05-31T07:46:42.136Z,38.23
2018-05-31T07:47:47.663Z,38.10
2018-05-31T07:48:52.991Z,37.27
2018-05-31T07:49:58.491Z,38.97
2018-05-31T07:51:03.982Z,36.53
2018-05-31T07:52:10.251Z,36.37
2018-05-31T07:53:16.547Z,35.03
2018-05-31T07:54:22.052Z,36.23
2018-05-31T07:55:27.554Z,35.83
2018-05-31T07:56:33.061Z,35.60
2018-05-31T07:57:38.569Z,36.93
2018-05-31T07:58:44.091Z,39.27
2018-05-31T07:59:50.379Z,36.67
2018-05-31T08:00:55.875Z,37.63
2018-05-31T08:02:02.193Z,34.80
2018-05-31T08:03:07.698Z,34.20
2018-05-31T08:04:12.924Z,36.00
2018-05-31T08:05:19.359Z,35.23
2018-05-31T08:06:25.643Z,35.23
2018-05-31T08:07:31.143Z,35.23
2018-05-31T08:08:36.651Z,35.97
2018-05-31T08:09:42.179Z,36.43
2018-05-31T08:10:47.682Z,35.10
2018-05-31T08:11:53.209Z,36.27
2018-05-31T08:12:58.699Z,34.40
2018-05-31T08:14:03.882Z,35.67
2018-05-31T08:15:09.486Z,34.37
2018-05-31T08:16:15.457Z,35.37
2018-05-31T08:17:20.971Z,32.37
2018-05-31T08:18:27.255Z,33.20
2018-05-31T08:19:32.768Z,35.20
2018-05-31T08:20:39.110Z,33.20
2018-05-31T08:21:44.791Z,35.10
2018-05-31T08:22:50.297Z,34.30
2018-05-31T08:23:56.568Z,34.83
2018-05-31T08:25:02.088Z,29.83
2018-05-31T08:26:07.599Z,32.57
2018-05-31T08:27:14.618Z,34.27
2018-05-31T08:28:20.132Z,32.27
2018-05-31T08:29:26.403Z,33.10
2018-05-31T08:30:31.903Z,34.10
2018-05-31T08:31:37.474Z,30.23
2018-05-31T08:32:43.911Z,31.77
2018-05-31T08:33:50.170Z,30.27
2018-05-31T08:34:55.677Z,32.73
2018-05-31T08:36:01.394Z,32.90
2018-05-31T08:37:06.919Z,29.57
2018-05-31T08:38:12.416Z,29.30
2018-05-31T08:39:18.934Z,29.27
2018-05-31T08:40:24.848Z,30.20
2018-05-31T08:41:30.340Z,32.33
2018-05-31T08:42:36.262Z,32.73
2018-05-31T08:43:41.761Z,32.60
2018-05-31T08:44:47.259Z,30.47
2018-05-31T08:45:53.547Z,31.97
2018-05-31T08:46:59.051Z,29.97
2018-05-31T08:48:05.400Z,32.33
2018-05-31T08:49:10.916Z,33.07
2018-05-31T08:50:16.423Z,30.73
2018-05-31T08:51:21.981Z,31.07
2018-05-31T08:52:27.512Z,33.37
2018-05-31T08:53:33.044Z,33.93
2018-05-31T08:54:39.008Z,32.13
2018-05-31T08:55:44.538Z,32.10
2018-05-31T08:56:50.051Z,33.93
2018-05-31T08:57:55.564Z,32.20
2018-05-31T08:59:01.092Z,31.57
2018-05-31T09:00:06.023Z,33.50
2018-05-31T09:01:11.686Z,32.63
2018-05-31T09:02:17.186Z,28.70
2018-05-31T09:03:22.707Z,30.20
2018-05-31T09:04:28.231Z,31.43
2018-05-31T09:05:33.731Z,29.93
2018-05-31T09:06:39.359Z,29.43
2018-05-31T09:07:44.906Z,30.10
2018-05-31T09:08:50.432Z,30.87
2018-05-31T09:09:55.966Z,29.00
2018-05-31T09:11:01.580Z,27.67
2018-05-31T09:12:07.868Z,25.77
2018-05-31T09:13:13.379Z,28.30
2018-05-31T09:14:18.903Z,31.47
2018-05-31T09:15:25.188Z,31.63
2018-05-31T09:16:30.688Z,32.60
2018-05-31T09:17:36.947Z,30.40
2018-05-31T09:18:43.211Z,29.60
2018-05-31T09:19:48.727Z,28.70
2018-05-31T09:20:55.011Z,28.30
2018-05-31T09:22:00.515Z,27.80
2018-05-31T09:23:06.780Z,27.03
2018-05-31T09:24:12.304Z,27.30
2018-05-31T09:25:18.574Z,29.47
2018-05-31T09:26:24.105Z,26.47
2018-05-31T09:27:30.376Z,27.33
2018-05-31T09:28:35.885Z,28.03
2018-05-31T09:29:42.360Z,25.83
2018-05-31T09:30:47.873Z,25.13
2018-05-31T09:31:54.171Z,27.03
2018-05-31T09:32:59.670Z,24.80
2018-05-31T09:34:05.943Z,27.17
2018-05-31T09:35:11.440Z,26.17
2018-05-31T09:36:17.055Z,24.60
2018-05-31T09:37:22.588Z,24.37
2018-05-31T09:38:28.095Z,24.67
2018-05-31T09:39:32.701Z,24.67
2018-05-31T09:40:38.210Z,24.77
2018-05-31T09:41:43.723Z,24.87
2018-05-31T09:42:49.236Z,24.20
2018-05-31T09:43:54.743Z,24.90
2018-05-31T09:45:00.246Z,24.10
2018-05-31T09:46:06.522Z,27.00
2018-05-31T09:47:12.985Z,24.33
2018-05-31T09:48:18.508Z,23.43
2018-05-31T09:49:24.787Z,22.53
2018-05-31T09:50:30.318Z,23.30
2018-05-31T09:51:35.815Z,28.57
2018-05-31T09:52:41.386Z,27.00
2018-05-31T09:53:46.900Z,25.33
2018-05-31T09:54:53.162Z,27.43
2018-05-31T09:55:59.435Z,25.80
2018-05-31T09:57:04.959Z,25.33
2018-05-31T09:58:10.586Z,24.30
2018-05-31T09:59:16.290Z,24.47
2018-05-31T10:00:21.571Z,25.33
2018-05-31T10:01:27.112Z,26.00
2018-05-31T10:02:32.611Z,25.97
2018-05-31T10:03:38.126Z,24.60
2018-05-31T10:04:43.646Z,23.37
2018-05-31T10:05:49.151Z,22.87
2018-05-31T10:06:54.656Z,23.40
2018-05-31T10:08:00.996Z,23.37
2018-05-31T10:09:06.966Z,20.90
2018-05-31T10:10:12.496Z,21.97
2018-05-31T10:11:18.001Z,21.17
2018-05-31T10:12:23.503Z,21.50
2018-05-31T10:13:29.002Z,20.17
2018-05-31T10:14:34.511Z,22.63
2018-05-31T10:15:40.052Z,22.73
2018-05-31T10:16:45.215Z,22.77
2018-05-31T10:17:51.491Z,21.43
2018-05-31T10:18:57.020Z,21.80
2018-05-31T10:20:03.290Z,21.70
2018-05-31T10:21:08.816Z,20.23
2018-05-31T10:22:14.381Z,23.10
2018-05-31T10:23:19.872Z,22.93
2018-05-31T10:24:26.151Z,23.20
2018-05-31T10:25:31.662Z,24.53
2018-05-31T10:26:38.004Z,23.83
2018-05-31T10:27:43.506Z,24.27
2018-05-31T10:28:49.015Z,24.37
2018-05-31T10:29:54.524Z,24.23
2018-05-31T10:31:00.791Z,25.60
2018-05-31T10:32:07.065Z,25.07
2018-05-31T10:33:12.565Z,23.63
2018-05-31T10:34:18.827Z,23.70
2018-05-31T10:35:25.107Z,24.40
2018-05-31T10:37:43.739Z,24.57
2018-05-31T10:38:49.253Z,24.77
2018-05-31T10:39:54.759Z,24.30
2018-05-31T10:41:00.267Z,23.70
2018-05-31T10:42:05.537Z,25.03
2018-05-31T10:43:11.338Z,24.40
2018-05-31T10:44:16.855Z,24.73
2018-05-31T10:45:22.616Z,23.77
2018-05-31T10:46:29.191Z,22.92
2018-05-31T10:47:35.940Z,23.35
2018-05-31T10:48:42.502Z,23.50
2018-05-31T10:49:49.044Z,22.85
2018-05-31T10:50:54.822Z,21.17
2018-05-31T10:52:00.603Z,22.87
2018-05-31T10:53:06.720Z,26.00
2018-05-31T10:54:12.509Z,24.15
2018-05-31T10:55:18.291Z,24.85
2018-05-31T10:56:24.070Z,25.55
2018-05-31T10:57:29.836Z,23.55
2018-05-31T10:58:35.615Z,24.55
2018-05-31T10:59:41.471Z,25.12
2018-05-31T11:00:47.270Z,22.25
2018-05-31T11:01:53.043Z,22.50
2018-05-31T11:02:58.900Z,23.12
2018-05-31T11:04:04.668Z,22.70
2018-05-31T11:05:10.464Z,22.98
2018-05-31T11:06:16.999Z,21.85
2018-05-31T11:07:22.772Z,23.25
2018-05-31T11:08:29.303Z,23.30
2018-05-31T11:09:36.610Z,23.10
2018-05-31T11:10:43.471Z,23.73
2018-05-31T11:11:50.003Z,22.73
2018-05-31T11:12:55.785Z,23.27
2018-05-31T11:14:01.563Z,22.87
2018-05-31T11:15:07.336Z,21.75
2018-05-31T11:16:13.124Z,22.02
2018-05-31T11:17:18.895Z,21.77
2018-05-31T11:18:24.667Z,20.17
2018-05-31T11:19:30.124Z,22.20
2018-05-31T11:20:36.652Z,21.50
2018-05-31T11:21:42.488Z,24.65
2018-05-31T11:22:48.579Z,23.45
2018-05-31T11:23:55.110Z,22.60
2018-05-31T11:25:01.092Z,21.55
2018-05-31T11:26:06.870Z,23.02
2018-05-31T11:27:12.660Z,21.98
2018-05-31T11:28:18.873Z,22.35
2018-05-31T11:29:24.735Z,21.85
2018-05-31T11:30:30.508Z,21.58
2018-05-31T11:31:36.296Z,21.20
2018-05-31T11:32:42.123Z,22.42
2018-05-31T11:33:47.896Z,20.77
2018-05-31T11:34:53.698Z,20.10
2018-05-31T11:35:59.476Z,23.48
2018-05-31T11:37:05.260Z,21.45
2018-05-31T11:38:11.807Z,21.85
2018-05-31T11:39:18.374Z,20.92
2018-05-31T11:40:24.152Z,21.35
2018-05-31T11:41:30.585Z,20.85
2018-05-31T11:42:36.361Z,21.48
2018-05-31T11:43:42.163Z,19.77
2018-05-31T11:44:48.690Z,21.25
2018-05-31T11:45:54.467Z,20.58
2018-05-31T11:47:01.016Z,20.52
2018-05-31T11:48:07.562Z,21.23
2018-05-31T11:49:14.132Z,23.48
2018-05-31T11:50:19.921Z,20.65
2018-05-31T11:51:25.688Z,21.60
2018-05-31T11:52:31.461Z,19.45
2018-05-31T11:53:38.019Z,20.10
2018-05-31T11:54:44.617Z,19.92
2018-05-31T11:55:50.383Z,19.80
2018-05-31T11:56:56.146Z,20.73
2018-05-31T11:58:01.921Z,21.48
2018-05-31T11:59:08.463Z,20.30
2018-05-31T12:00:15.228Z,21.25
2018-05-31T12:01:21.766Z,21.25
2018-05-31T12:02:27.539Z,21.80
2018-05-31T12:03:33.302Z,20.83
2018-05-31T12:04:39.090Z,21.08
2018-05-31T12:05:44.896Z,19.67
2018-05-31T12:06:50.671Z,19.05
2018-05-31T12:07:56.461Z,19.83
2018-05-31T12:09:02.248Z,19.20
2018-05-31T12:10:08.023Z,20.08
2018-05-31T12:11:14.622Z,18.92
2018-05-31T12:12:20.391Z,19.45
2018-05-31T12:13:26.174Z,19.90
2018-05-31T12:14:32.727Z,20.25
2018-05-31T12:15:39.356Z,19.25
2018-05-31T12:16:45.159Z,18.40
2018-05-31T12:17:50.955Z,18.80
2018-05-31T12:18:58.243Z,19.37
2018-05-31T12:20:04.043Z,20.83
2018-05-31T12:21:09.625Z,19.25
2018-05-31T12:22:16.195Z,18.95
2018-05-31T12:23:22.746Z,18.95
2018-05-31T12:24:28.833Z,17.55
2018-05-31T12:25:34.697Z,17.83
2018-05-31T12:26:41.411Z,18.33
2018-05-31T12:27:47.964Z,18.77
2018-05-31T12:28:54.516Z,17.92
2018-05-31T12:30:00.715Z,17.37
2018-05-31T12:31:06.511Z,17.00
2018-05-31T12:32:12.300Z,17.55
2018-05-31T12:33:18.291Z,16.77
2018-05-31T12:34:24.059Z,17.17
2018-05-31T12:35:30.927Z,17.58
2018-05-31T12:36:37.472Z,16.75
2018-05-31T12:37:43.260Z,17.20
2018-05-31T12:38:49.271Z,17.60
2018-05-31T12:39:55.048Z,18.02
2018-05-31T12:41:00.830Z,16.60
2018-05-31T12:42:06.935Z,17.55
2018-05-31T12:43:12.745Z,17.40
2018-05-31T12:44:18.543Z,17.27
2018-05-31T12:45:24.321Z,18.35
2018-05-31T12:46:30.106Z,16.52
2018-05-31T12:47:35.878Z,18.60
2018-05-31T12:48:41.672Z,18.05
2018-05-31T12:49:48.236Z,18.85
2018-05-31T12:50:54.779Z,19.10
2018-05-31T12:52:00.544Z,18.30
2018-05-31T12:53:05.987Z,17.10
2018-05-31T12:54:11.831Z,18.23
2018-05-31T12:55:17.636Z,16.52
2018-05-31T12:56:24.201Z,16.77
2018-05-31T12:57:29.979Z,16.90
2018-05-31T12:58:35.763Z,16.05
2018-05-31T12:59:41.553Z,16.90
2018-05-31T13:00:48.118Z,15.88
2018-05-31T13:01:53.887Z,16.35
2018-05-31T13:02:59.690Z,15.73
2018-05-31T13:04:06.227Z,17.58
2018-05-31T13:05:12.025Z,16.75
2018-05-31T13:06:17.852Z,16.20
2018-05-31T13:07:23.631Z,17.02
2018-05-31T13:08:29.414Z,16.42
2018-05-31T13:09:36.007Z,18.33
2018-05-31T13:10:42.055Z,17.40
2018-05-31T13:11:48.128Z,17.42
2018-05-31T13:12:53.570Z,16.08
2018-05-31T13:13:59.340Z,16.95
2018-05-31T13:15:05.561Z,19.62
2018-05-31T13:16:11.344Z,16.65
2018-05-31T13:17:17.917Z,16.33
2018-05-31T13:18:23.704Z,15.75
2018-05-31T13:19:29.480Z,17.65
2018-05-31T13:20:36.071Z,16.77
2018-05-31T13:21:41.849Z,15.85
2018-05-31T13:22:47.659Z,16.95
2018-05-31T13:23:53.450Z,16.92
2018-05-31T13:24:59.223Z,15.40
2018-05-31T13:26:04.665Z,16.65
2018-05-31T13:27:10.445Z,22.58
2018-05-31T13:28:16.258Z,16.42
2018-05-31T13:29:22.916Z,15.27
2018-05-31T13:30:28.752Z,15.68
2018-05-31T13:31:34.534Z,15.20
2018-05-31T13:32:41.119Z,14.25
2018-05-31T13:33:46.976Z,14.93
2018-05-31T13:34:54.473Z,14.30
2018-05-31T13:36:01.800Z,14.52
2018-05-31T13:37:06.916Z,13.43
2018-05-31T13:38:12.695Z,14.77
2018-05-31T13:39:18.497Z,14.05
2018-05-31T13:40:24.287Z,15.25
2018-05-31T13:41:30.059Z,15.02
2018-05-31T13:42:35.843Z,14.50
2018-05-31T13:43:41.635Z,15.25
2018-05-31T13:44:48.209Z,15.25
2018-05-31T13:45:53.985Z,15.40
2018-05-31T13:46:59.768Z,14.27
2018-05-31T13:48:06.312Z,14.90
2018-05-31T13:49:12.096Z,15.73
2018-05-31T13:50:17.692Z,14.60
2018-05-31T13:51:24.237Z,15.27
2018-05-31T13:52:30.007Z,15.75
2018-05-31T13:53:36.547Z,14.82
2018-05-31T13:54:43.830Z,14.63
2018-05-31T13:55:49.619Z,15.02
2018-05-31T13:56:55.391Z,14.73
2018-05-31T13:58:01.168Z,13.95
2018-05-31T13:59:07.718Z,14.32
2018-05-31T14:00:13.169Z,14.02
2018-05-31T14:01:19.724Z,13.45
2018-05-31T14:02:26.261Z,13.13
2018-05-31T14:03:32.811Z,12.00
2018-05-31T14:04:38.573Z,11.95
2018-05-31T14:05:44.354Z,12.98
2018-05-31T14:06:50.407Z,11.63
2018-05-31T14:07:56.175Z,11.25
2018-05-31T14:09:01.993Z,11.35
2018-05-31T14:10:07.791Z,11.32
2018-05-31T14:11:13.615Z,12.57